Berrien Springs, MI

8:01 AM EDT on September 05, 2015 (GMT -0400)
Cole Farm | | Change Station
CLOSE
Current Station
Personal Weather Station
Location: Berrien Springs, MI
Elevation: 725 ft
Nearby Weather Stations

Elev 725 ft 41.94 °N, 86.41 °W | Updated 1 minute ago

Clear
Clear
67.5 °F
Feels Like 67.5 °F
N
0.0
Wind Variable Wind from SW
Gusts 0.0 mph

Today
High -- | Low -- °F
--% Chance of Precip.
Yesterday
High -- | Low -- °F
Precip. -- in
7:14 AM 8:12 PM
Waning Gibbous, 49% visible
Pressure 30.08 in
Visibility 8.0 miles
Clouds Clear
Dew Point 66 °F
Humidity 96%
Rainfall 0.00 in
Snow Depth Not available.
UV 0 out of 12
Pollen 8.70 out of 12
Air Quality Not available.
Flu Activity Not available.
METAR KBEH 051153Z AUTO 15004KT 8SM CLR 20/18 A3008 RMK AO2 SLP184 T02000183 10206 20183 50006
Pressure 30.08 in
Visibility 8.0 miles
Clouds Clear
Dew Point 66 °F
Humidity 96%
Rainfall 0.00 in
Snow Depth Not available.
UV 0 out of 12
Pollen 8.70 out of 12
Air Quality Not available.
Flu Activity Not available.
METAR KBEH 051153Z AUTO 15004KT 8SM CLR 20/18 A3008 RMK AO2 SLP184 T02000183 10206 20183 50006

10-Day Weather Forecast

×

Almanac

Astronomy

Sep. 05, 2015 Rise Set
Actual Time
Civil Twilight
Nautical Twilight
Astronomical Twilight
Moon
Length of Visible Light
Length of Day
Tomorrow will be .
, % of the Moon is Illuminated

Today's Extremes

State Highs State Lows

Community

WunderPhotos

Upload Photos

1,852,453 photos uploaded!

WunderBlogs® & News

Nearby

Air Quality

  Air Quality AQ Index Pollutant
Not available.

Snow Depth

Station Depth Elevation

Earthquake Activity

City Distance Mag. Time & Date
Minimum magnitude displayed is 2.5.

Coastal Water Temperatures

Place Temperature

Stations

Nearby Weather Stations

Station Location Temp. Windchill Dew Point Humidity Wind Precip. Elev Updated Type